Time;durP1;ratioP1;P1;durP2;ratioP2;P2;SDS_P1;SDS_P2;PMS_P1;PMS_P2;Temp;Humidity;BMP_temperature;BMP_pressure;BME280_temperature;BME280_humidity;BME280_pressure;Samples;Min_cycle;Max_cycle;Signal;HPM_P1;HPM_P2
2022/03/07 00:02:00;;;;;;;0.80;0.80;;;;;;;-2.23;63.27;98428.41;6056266;23;20342;-94
2022/03/07 00:04:29;;;;;;;0.45;0.45;;;;;;;-2.37;63.50;98402.75;6079044;23;20061;-92
2022/03/07 00:07:10;;;;;;;0.80;0.80;;;;;;;-2.35;63.61;98421.91;6037847;23;20022;-93
2022/03/07 00:09:40;;;;;;;0.55;0.55;;;;;;;-2.32;63.77;98420.72;6079074;23;20033;-93
2022/03/07 00:12:10;;;;;;;0.60;0.60;;;;;;;-2.36;64.09;98408.84;6104065;23;20028;-92
2022/03/07 00:14:42;;;;;;;0.60;0.60;;;;;;;-2.30;63.85;98418.72;6082091;23;20018;-92
2022/03/07 00:17:09;;;;;;;0.60;0.60;;;;;;;-2.38;63.56;98409.03;6109330;23;20029;-93
2022/03/07 00:19:37;;;;;;;0.68;0.68;;;;;;;-2.38;63.84;98411.69;6068764;23;20021;-92
2022/03/07 00:22:05;;;;;;;0.73;0.73;;;;;;;-2.37;63.76;98407.22;6079043;23;20026;-93
2022/03/07 00:24:33;;;;;;;0.70;0.70;;;;;;;-2.30;63.73;98414.25;6096823;23;20058;-92
2022/03/07 00:27:05;;;;;;;0.73;0.73;;;;;;;-2.29;63.82;98409.78;6124465;23;20013;-92
2022/03/07 00:29:45;;;;;;;0.60;0.60;;;;;;;-2.30;63.75;98398.41;6123434;23;20361;-92
2022/03/07 00:32:13;;;;;;;0.50;0.50;;;;;;;-2.38;63.76;98395.81;6089527;23;20080;-93
2022/03/07 00:34:40;;;;;;;0.70;0.70;;;;;;;-2.29;63.95;98407.16;6103107;23;20025;-93
2022/03/07 00:37:08;;;;;;;0.52;0.52;;;;;;;-2.32;63.81;98400.38;6055391;23;20022;-94
2022/03/07 00:39:37;;;;;;;0.63;0.63;;;;;;;-2.38;63.83;98389.69;6102051;23;20101;-93
2022/03/07 00:42:07;;;;;;;0.60;0.60;;;;;;;-2.25;64.04;98411.09;6078517;23;20190;-93
2022/03/07 00:44:36;;;;;;;0.60;0.60;;;;;;;-2.28;64.04;98399.03;6103382;23;20021;-94
2022/03/07 00:47:04;;;;;;;0.82;0.82;;;;;;;-2.27;64.05;98397.22;6055689;23;20050;-93
2022/03/07 00:49:35;;;;;;;0.47;0.47;;;;;;;-2.35;64.22;98384.88;6034480;23;20029;-93
2022/03/07 00:52:10;;;;;;;0.63;0.63;;;;;;;-2.21;64.18;98405.25;6050224;23;20029;-93
2022/03/07 00:54:39;;;;;;;0.50;0.50;;;;;;;-2.20;64.14;98406.91;6078696;23;20040;-93
2022/03/07 00:57:07;;;;;;;0.50;0.50;;;;;;;-2.34;64.04;98389.16;6057671;23;20025;-94
2022/03/07 00:59:41;;;;;;;0.70;0.70;;;;;;;-2.32;63.93;98373.97;6081083;23;20022;-92
2022/03/07 01:02:12;;;;;;;0.60;0.60;;;;;;;-2.27;63.66;98387.47;6055816;23;20053;-93
2022/03/07 01:04:42;;;;;;;0.60;0.60;;;;;;;-2.23;63.83;98398.50;6078869;23;20429;-92
2022/03/07 01:07:10;;;;;;;0.63;0.63;;;;;;;-2.28;63.83;98375.25;6054539;23;20449;-92
2022/03/07 01:09:38;;;;;;;0.60;0.60;;;;;;;-2.23;64.18;98387.91;6078795;23;20026;-93
2022/03/07 01:12:06;;;;;;;0.80;0.80;;;;;;;-2.26;63.93;98390.94;6054426;23;20034;-91
2022/03/07 01:14:34;;;;;;;0.68;0.68;;;;;;;-2.31;64.04;98385.34;6056122;23;20116;-94
2022/03/07 01:17:01;;;;;;;0.65;0.65;;;;;;;-2.33;64.25;98382.91;6061008;23;20461;-92
2022/03/07 01:19:29;;;;;;;0.63;0.63;;;;;;;-2.29;63.85;98389.47;6095624;23;20105;-91
2022/03/07 01:21:56;;;;;;;0.68;0.68;;;;;;;-2.35;63.57;98370.88;6067203;23;20066;-93
2022/03/07 01:24:23;;;;;;;0.60;0.60;;;;;;;-2.29;63.70;98370.97;6127538;23;20018;-91
2022/03/07 01:26:51;;;;;;;0.50;0.50;;;;;;;-2.25;63.59;98382.81;6123319;23;20041;-92
2022/03/07 01:29:20;;;;;;;0.70;0.70;;;;;;;-2.36;63.65;98367.38;6127674;23;20026;-92
2022/03/07 01:31:52;;;;;;;0.60;0.60;;;;;;;-2.44;63.71;98362.16;6055178;23;20026;-93
2022/03/07 01:34:24;;;;;;;0.43;0.43;;;;;;;-2.26;63.72;98385.63;6078768;23;20026;-92
2022/03/07 01:36:51;;;;;;;0.70;0.70;;;;;;;-2.34;63.43;98381.22;6054550;23;20469;-90
2022/03/07 01:39:19;;;;;;;0.60;0.60;;;;;;;-2.45;63.70;98371.91;6101904;23;20032;-91
2022/03/07 01:41:47;;;;;;;0.77;0.77;;;;;;;-2.34;63.60;98373.31;6128197;23;20026;-92
2022/03/07 01:44:23;;;;;;;0.70;0.70;;;;;;;-2.49;63.72;98356.59;6101516;23;20022;-94
2022/03/07 01:46:51;;;;;;;0.50;0.50;;;;;;;-2.38;63.75;98374.69;6078550;23;20463;-90
2022/03/07 01:49:20;;;;;;;0.80;0.80;;;;;;;-2.45;63.94;98365.81;6102324;23;20469;-94
2022/03/07 01:51:48;;;;;;;0.55;0.55;;;;;;;-2.45;63.84;98366.63;6038877;23;20029;-94
2022/03/07 01:54:18;;;;;;;0.60;0.60;;;;;;;-2.43;64.21;98375.19;6103739;23;20018;-94
2022/03/07 01:56:47;;;;;;;0.70;0.70;;;;;;;-2.44;64.39;98370.09;6057145;23;20014;-93
2022/03/07 01:59:27;;;;;;;0.50;0.50;;;;;;;-2.43;64.12;98367.28;6105141;23;20005;-93
2022/03/07 02:02:01;;;;;;;0.70;0.70;;;;;;;-2.64;64.17;98341.47;6079266;23;20008;-92
2022/03/07 02:04:32;;;;;;;0.60;0.60;;;;;;;-2.53;64.61;98366.69;6079554;23;20038;-93
2022/03/07 02:07:02;;;;;;;0.60;0.60;;;;;;;-2.56;64.87;98368.84;6032078;23;20671;-92
2022/03/07 02:09:34;;;;;;;0.65;0.65;;;;;;;-2.49;64.83;98377.72;6032504;23;20142;-90
2022/03/07 02:12:01;;;;;;;0.65;0.65;;;;;;;-2.62;64.94;98360.63;6101221;23;20032;-93
2022/03/07 02:14:35;;;;;;;0.60;0.60;;;;;;;-2.55;65.00;98378.44;6084933;23;20022;-92
2022/03/07 02:17:02;;;;;;;0.55;0.55;;;;;;;-2.51;64.75;98380.53;6060194;23;20050;-92
2022/03/07 02:19:29;;;;;;;0.50;0.50;;;;;;;-2.46;64.37;98380.81;6077305;23;20584;-91
2022/03/07 02:22:00;;;;;;;0.50;0.50;;;;;;;-2.51;64.38;98374.44;6100617;23;20104;-91
2022/03/07 02:24:48;;;;;;;0.70;0.70;;;;;;;-2.55;64.54;98378.44;6081262;23;20437;-90
2022/03/07 02:27:37;;;;;;;0.60;0.60;;;;;;;-2.49;64.85;98394.38;6076215;23;20105;-92
2022/03/07 02:30:08;;;;;;;0.60;0.60;;;;;;;-2.62;64.73;98379.13;6101478;23;20393;-91
2022/03/07 02:32:45;;;;;;;0.50;0.50;;;;;;;-2.60;64.76;98376.31;6077281;23;20530;-92
2022/03/07 02:35:14;;;;;;;0.73;0.73;;;;;;;-2.59;64.80;98377.13;6100208;23;20544;-91
2022/03/07 02:37:43;;;;;;;0.60;0.60;;;;;;;-2.57;65.00;98386.53;6101219;23;20030;-92
2022/03/07 02:40:21;;;;;;;0.70;0.70;;;;;;;-2.57;65.14;98385.72;6079629;23;20488;-90
2022/03/07 02:43:09;;;;;;;0.52;0.52;;;;;;;-2.66;65.35;98375.19;6057217;23;20473;-92
2022/03/07 02:45:37;;;;;;;0.80;0.80;;;;;;;-2.59;65.18;98385.06;6076884;23;20029;-93
2022/03/07 02:48:04;;;;;;;0.70;0.70;;;;;;;-2.71;65.19;98372.28;6102281;23;20361;-93
2022/03/07 02:50:32;;;;;;;0.60;0.60;;;;;;;-2.69;65.20;98375.53;6054201;23;20022;-93
2022/03/07 02:52:59;;;;;;;0.63;0.63;;;;;;;-2.74;65.42;98383.16;6132202;23;20042;-92
2022/03/07 02:55:26;;;;;;;0.80;0.80;;;;;;;-2.62;65.62;98391.50;6143749;23;20483;-90
2022/03/07 02:57:54;;;;;;;0.73;0.73;;;;;;;-2.60;65.50;98383.44;6109263;23;20048;-90
2022/03/07 03:00:21;;;;;;;0.63;0.63;;;;;;;-2.54;65.48;98390.63;6102284;23;20045;-90
2022/03/07 03:02:48;;;;;;;0.80;0.80;;;;;;;-2.65;65.27;98378.66;6066242;23;20022;-90
2022/03/07 03:05:16;;;;;;;0.57;0.57;;;;;;;-2.62;65.49;98389.69;6141531;23;20034;-89
2022/03/07 03:07:43;;;;;;;0.57;0.57;;;;;;;-2.62;65.77;98397.63;6129328;23;20476;-89
2022/03/07 03:10:10;;;;;;;0.45;0.45;;;;;;;-2.69;65.71;98380.00;6079532;23;20029;-89
2022/03/07 03:12:37;;;;;;;0.50;0.50;;;;;;;-2.73;65.80;98374.25;6115817;23;20026;-90
2022/03/07 03:15:06;;;;;;;0.50;0.50;;;;;;;-2.73;65.71;98376.91;6093582;23;20022;-91
2022/03/07 03:17:34;;;;;;;0.63;0.63;;;;;;;-2.65;65.72;98382.13;6092849;23;20421;-91
2022/03/07 03:20:04;;;;;;;0.60;0.60;;;;;;;-2.69;65.67;98382.63;6102427;23;20026;-89
2022/03/07 03:22:32;;;;;;;0.60;0.60;;;;;;;-2.62;65.78;98389.69;6127247;23;20537;-89
2022/03/07 03:24:59;;;;;;;0.70;0.70;;;;;;;-2.61;65.87;98393.16;6078003;23;20080;-89
2022/03/07 03:27:29;;;;;;;0.60;0.60;;;;;;;-2.62;65.76;98394.97;6078974;23;20053;-90
2022/03/07 03:29:57;;;;;;;0.65;0.65;;;;;;;-2.60;66.20;98386.06;6133652;23;20413;-91
2022/03/07 03:32:30;;;;;;;0.57;0.57;;;;;;;-2.71;66.09;98374.06;6094742;23;20036;-91
2022/03/07 03:34:57;;;;;;;0.40;0.40;;;;;;;-2.61;66.41;98390.50;6146383;23;20027;-90
2022/03/07 03:37:24;;;;;;;0.50;0.50;;;;;;;-2.65;66.14;98383.94;6122806;23;20049;-91
2022/03/07 03:39:54;;;;;;;0.60;0.60;;;;;;;-2.56;66.28;98384.69;6113825;23;20025;-91
2022/03/07 03:42:22;;;;;;;0.60;0.60;;;;;;;-2.69;66.31;98380.00;6087916;23;20457;-88
2022/03/07 03:44:50;;;;;;;0.60;0.60;;;;;;;-2.59;66.42;98382.41;6108758;23;20045;-90
2022/03/07 03:47:17;;;;;;;0.60;0.60;;;;;;;-2.67;66.55;98372.72;6102928;23;20026;-92
2022/03/07 03:49:44;;;;;;;0.45;0.45;;;;;;;-2.72;66.41;98360.03;6128553;23;20028;-91
2022/03/07 03:52:12;;;;;;;0.57;0.57;;;;;;;-2.56;66.26;98377.59;6102574;23;20077;-90
2022/03/07 03:54:44;;;;;;;0.43;0.43;;;;;;;-2.51;66.55;98387.63;6057521;23;20461;-91
2022/03/07 03:57:12;;;;;;;0.50;0.50;;;;;;;-2.52;66.31;98386.81;6130478;23;20022;-90
2022/03/07 03:59:40;;;;;;;0.63;0.63;;;;;;;-2.57;66.44;98375.16;6104523;23;20026;-89
2022/03/07 04:02:07;;;;;;;0.50;0.50;;;;;;;-2.62;66.48;98368.56;6128467;23;20026;-89
2022/03/07 04:04:40;;;;;;;0.60;0.60;;;;;;;-2.56;66.41;98382.88;6078385;23;20109;-89
2022/03/07 04:07:08;;;;;;;0.60;0.60;;;;;;;-2.57;66.83;98380.44;6103170;23;20053;-92
2022/03/07 04:09:36;;;;;;;0.60;0.60;;;;;;;-2.74;66.44;98361.22;6117093;23;20037;-91
2022/03/07 04:12:06;;;;;;;0.65;0.65;;;;;;;-2.60;66.72;98376.31;6103996;23;20061;-92
2022/03/07 04:14:34;;;;;;;0.52;0.52;;;;;;;-2.55;66.80;98387.19;6102423;23;20022;-91
2022/03/07 04:17:01;;;;;;;0.60;0.60;;;;;;;-2.57;66.80;98372.50;6102230;23;20030;-92
2022/03/07 04:19:29;;;;;;;0.60;0.60;;;;;;;-2.59;66.90;98377.13;6079328;23;20030;-90
2022/03/07 04:21:57;;;;;;;0.40;0.40;;;;;;;-2.69;67.00;98359.69;6078517;23;20022;-92
2022/03/07 04:24:30;;;;;;;0.60;0.60;;;;;;;-2.59;66.96;98388.50;6106258;23;20536;-91
2022/03/07 04:26:59;;;;;;;0.63;0.63;;;;;;;-2.63;67.14;98395.16;6104654;23;20457;-92
2022/03/07 04:29:26;;;;;;;0.52;0.52;;;;;;;-2.76;67.35;98365.84;6080085;23;20417;-92
2022/03/07 04:31:57;;;;;;;0.60;0.60;;;;;;;-2.66;67.29;98375.19;6080107;23;20044;-92
2022/03/07 04:34:26;;;;;;;0.60;0.60;;;;;;;-2.59;67.22;98382.41;6091652;23;20026;-91
2022/03/07 04:36:53;;;;;;;0.52;0.52;;;;;;;-2.62;66.85;98380.94;6147647;23;20048;-91
2022/03/07 04:39:21;;;;;;;0.50;0.50;;;;;;;-2.55;66.72;98391.66;6113336;23;20481;-93
2022/03/07 04:41:49;;;;;;;0.50;0.50;;;;;;;-2.57;66.87;98385.72;6103029;23;20029;-93
2022/03/07 04:44:16;;;;;;;0.68;0.68;;;;;;;-2.64;66.83;98375.00;6102333;23;20037;-92
2022/03/07 04:46:51;;;;;;;0.70;0.70;;;;;;;-2.56;66.53;98390.81;6058082;23;20025;-93
2022/03/07 04:49:21;;;;;;;0.35;0.35;;;;;;;-2.57;66.74;98383.06;6080046;23;20046;-92
2022/03/07 04:51:49;;;;;;;0.68;0.68;;;;;;;-2.58;66.73;98384.03;6105413;23;20086;-91
2022/03/07 04:54:18;;;;;;;0.45;0.45;;;;;;;-2.57;66.79;98381.25;6079601;23;20115;-90
2022/03/07 04:56:48;;;;;;;0.50;0.50;;;;;;;-2.56;66.67;98380.22;6104245;23;20033;-91
2022/03/07 04:59:17;;;;;;;0.50;0.50;;;;;;;-2.58;66.70;98379.59;6103906;23;20053;-89
2022/03/07 05:01:44;;;;;;;0.57;0.57;;;;;;;-2.59;66.56;98366.56;6129585;23;20077;-91
2022/03/07 05:04:15;;;;;;;0.50;0.50;;;;;;;-2.56;66.53;98377.59;6082287;23;20101;-93
2022/03/07 05:06:47;;;;;;;0.70;0.70;;;;;;;-2.51;66.46;98369.97;6119041;23;20461;-95
2022/03/07 05:09:18;;;;;;;0.57;0.57;;;;;;;-2.49;66.48;98361.88;6080731;23;20089;-92
2022/03/07 05:11:45;;;;;;;0.65;0.65;;;;;;;-2.47;66.34;98381.81;6088779;23;20026;-90
2022/03/07 05:14:14;;;;;;;0.65;0.65;;;;;;;-2.41;66.52;98369.72;6103756;23;20088;-91
2022/03/07 05:16:44;;;;;;;0.60;0.60;;;;;;;-2.42;66.19;98362.81;6105397;23;20452;-89
2022/03/07 05:19:12;;;;;;;0.70;0.70;;;;;;;-2.35;66.20;98374.31;6054705;23;20108;-89
2022/03/07 05:21:40;;;;;;;0.60;0.60;;;;;;;-2.40;66.18;98358.16;6127399;23;20022;-90
2022/03/07 05:24:32;;;;;;;0.50;0.50;;;;;;;-2.32;65.99;98373.16;6125508;23;20038;-90
2022/03/07 05:27:00;;;;;;;0.70;0.70;;;;;;;-2.34;65.99;98385.72;6087530;23;20032;-91
2022/03/07 05:29:31;;;;;;;0.90;0.90;;;;;;;-2.39;66.06;98373.03;6060076;23;20029;-87
2022/03/07 05:31:58;;;;;;;0.65;0.65;;;;;;;-2.29;66.14;98388.63;6109591;23;20029;-91
2022/03/07 05:34:30;;;;;;;0.70;0.70;;;;;;;-2.41;66.18;98365.25;6133933;23;20021;-87
2022/03/07 05:36:57;;;;;;;0.70;0.70;;;;;;;-2.28;65.77;98375.25;6077591;23;20030;-91
2022/03/07 05:39:26;;;;;;;0.70;0.70;;;;;;;-2.30;65.71;98377.25;6121913;23;20022;-89
2022/03/07 05:41:54;;;;;;;0.50;0.50;;;;;;;-2.25;65.70;98388.13;6135108;23;20146;-88
2022/03/07 05:44:22;;;;;;;0.50;0.50;;;;;;;-2.17;65.81;98399.63;6112961;23;20012;-89
2022/03/07 05:46:49;;;;;;;0.80;0.80;;;;;;;-2.15;65.55;98384.38;6122179;23;20022;-88
2022/03/07 05:49:17;;;;;;;0.70;0.70;;;;;;;-2.08;65.36;98393.25;6101356;23;20121;-88
2022/03/07 05:51:46;;;;;;;0.60;0.60;;;;;;;-2.08;65.03;98387.97;6098506;23;20428;-89
2022/03/07 05:54:13;;;;;;;0.80;0.80;;;;;;;-2.12;65.10;98381.41;6125976;23;20029;-88
2022/03/07 05:56:41;;;;;;;0.70;0.70;;;;;;;-2.08;65.24;98383.50;6079140;23;20420;-89
2022/03/07 05:59:12;;;;;;;0.60;0.60;;;;;;;-1.97;64.94;98393.66;6062642;23;20045;-89
2022/03/07 06:01:44;;;;;;;0.60;0.60;;;;;;;-2.00;65.02;98395.81;6070930;23;20033;-88
2022/03/07 06:04:11;;;;;;;0.70;0.70;;;;;;;-2.02;64.82;98389.91;6110189;23;20018;-88
2022/03/07 06:06:39;;;;;;;0.70;0.70;;;;;;;-2.11;64.97;98381.22;6112008;23;20042;-86
2022/03/07 06:09:08;;;;;;;0.70;0.70;;;;;;;-1.96;64.84;98394.47;6136279;23;20088;-89
2022/03/07 06:11:36;;;;;;;0.70;0.70;;;;;;;-1.92;64.65;98398.41;6129825;23;20080;-86
2022/03/07 06:14:04;;;;;;;0.70;0.70;;;;;;;-1.89;64.56;98398.03;6121653;23;20022;-85
2022/03/07 06:16:31;;;;;;;0.70;0.70;;;;;;;-1.86;64.54;98405.63;6122885;23;20069;-84
2022/03/07 06:18:58;;;;;;;0.80;0.80;;;;;;;-1.82;64.55;98401.63;6120374;23;20025;-87
2022/03/07 06:21:25;;;;;;;0.50;0.50;;;;;;;-1.82;64.49;98401.63;6121785;23;20022;-89
2022/03/07 06:23:56;;;;;;;0.90;0.90;;;;;;;-1.71;64.00;98408.28;6122046;23;20049;-89
2022/03/07 06:26:24;;;;;;;0.60;0.60;;;;;;;-1.80;63.96;98401.44;6072451;23;20030;-84
2022/03/07 06:28:51;;;;;;;0.68;0.68;;;;;;;-1.74;64.17;98403.38;6120698;23;20026;-83
2022/03/07 06:31:19;;;;;;;0.50;0.50;;;;;;;-1.66;63.86;98408.56;6094665;23;20052;-85
2022/03/07 06:33:52;;;;;;;0.80;0.80;;;;;;;-1.67;63.79;98404.28;6121686;23;20061;-86
2022/03/07 06:36:19;;;;;;;0.80;0.80;;;;;;;-1.63;63.92;98417.97;6096308;23;20026;-87
2022/03/07 06:38:47;;;;;;;0.70;0.70;;;;;;;-1.64;63.77;98403.13;6121437;23;20026;-85
2022/03/07 06:41:17;;;;;;;0.60;0.60;;;;;;;-1.72;63.86;98390.78;6094649;23;20113;-85
2022/03/07 06:43:47;;;;;;;0.60;0.60;;;;;;;-1.57;63.64;98407.50;6121308;23;20075;-86
2022/03/07 06:46:14;;;;;;;0.70;0.70;;;;;;;-1.55;63.33;98407.28;6095297;23;20036;-85
2022/03/07 06:48:41;;;;;;;0.73;0.73;;;;;;;-1.42;63.42;98419.91;6121112;23;20024;-86
2022/03/07 06:51:08;;;;;;;0.80;0.80;;;;;;;-1.45;63.16;98412.31;6122580;23;20052;-89
2022/03/07 06:53:36;;;;;;;0.70;0.70;;;;;;;-1.43;62.96;98411.13;6122211;23;20022;-85
2022/03/07 06:56:04;;;;;;;0.55;0.55;;;;;;;-1.44;63.04;98412.16;6073040;23;20021;-84
2022/03/07 06:58:31;;;;;;;0.70;0.70;;;;;;;-1.43;63.04;98411.13;6097140;23;20054;-86
2022/03/07 07:00:58;;;;;;;0.80;0.80;;;;;;;-1.42;63.08;98423.38;6121503;23;20465;-85
2022/03/07 07:03:26;;;;;;;0.80;0.80;;;;;;;-1.48;63.09;98408.22;6095958;23;20072;-85
2022/03/07 07:05:56;;;;;;;0.80;0.80;;;;;;;-1.41;63.09;98421.56;6122361;23;20071;-84
2022/03/07 07:08:23;;;;;;;0.77;0.77;;;;;;;-1.37;62.83;98417.53;6122263;23;20049;-85
2022/03/07 07:10:51;;;;;;;0.70;0.70;;;;;;;-1.42;62.95;98406.66;6121937;23;20105;-87
2022/03/07 07:13:18;;;;;;;0.65;0.65;;;;;;;-1.41;63.02;98413.63;6122212;23;20069;-86
2022/03/07 07:15:54;;;;;;;0.70;0.70;;;;;;;-1.37;62.79;98413.06;6124052;23;20052;-88
2022/03/07 07:18:22;;;;;;;0.80;0.80;;;;;;;-1.31;62.81;98419.47;6099799;23;20405;-86
2022/03/07 07:20:50;;;;;;;0.80;0.80;;;;;;;-1.28;62.78;98415.63;6049527;23;20085;-87
2022/03/07 07:23:19;;;;;;;0.70;0.70;;;;;;;-1.21;62.59;98416.53;6122500;23;20028;-84
2022/03/07 07:25:49;;;;;;;0.70;0.70;;;;;;;-1.28;62.36;98407.69;6120618;23;20037;-86
2022/03/07 07:28:16;;;;;;;0.70;0.70;;;;;;;-1.21;62.32;98406.75;6121383;23;20022;-87
2022/03/07 07:30:46;;;;;;;0.70;0.70;;;;;;;-1.27;62.35;98406.66;6121616;23;20033;-87
2022/03/07 07:33:14;;;;;;;0.70;0.70;;;;;;;-1.17;62.24;98401.91;6121037;23;20081;-85
2022/03/07 07:35:41;;;;;;;0.63;0.63;;;;;;;-1.15;61.96;98402.56;6121741;23;20100;-86
2022/03/07 07:38:08;;;;;;;0.60;0.60;;;;;;;-1.10;62.19;98400.19;6095530;23;20555;-86
2022/03/07 07:40:35;;;;;;;0.80;0.80;;;;;;;-1.10;61.71;98397.53;6123035;23;20088;-85
2022/03/07 07:43:03;;;;;;;0.80;0.80;;;;;;;-1.04;61.90;98402.06;6122952;23;20045;-83
2022/03/07 07:45:32;;;;;;;0.82;0.82;;;;;;;-0.92;61.57;98399.78;6122023;23;20026;-84
2022/03/07 07:48:00;;;;;;;1.00;1.00;;;;;;;-0.92;61.72;98394.47;6097491;23;20030;-86
2022/03/07 07:50:27;;;;;;;0.80;0.80;;;;;;;-0.97;61.45;98394.22;6123502;23;20022;-85
2022/03/07 07:52:55;;;;;;;0.70;0.70;;;;;;;-0.91;61.29;98404.91;6123751;23;20030;-85
2022/03/07 07:55:23;;;;;;;0.77;0.77;;;;;;;-0.87;61.39;98408.00;6097185;23;20026;-84
2022/03/07 07:57:50;;;;;;;0.77;0.77;;;;;;;-0.88;61.44;98412.47;6099265;23;20036;-84
2022/03/07 08:00:21;;;;;;;0.60;0.60;;;;;;;-0.82;61.31;98412.75;6096524;23;20068;-85
2022/03/07 08:02:50;;;;;;;0.60;0.60;;;;;;;-0.79;61.32;98401.75;6097469;23;20073;-83
2022/03/07 08:05:20;;;;;;;0.50;0.50;;;;;;;-0.70;61.30;98411.25;6122544;23;20108;-85
2022/03/07 08:07:47;;;;;;;0.80;0.80;;;;;;;-0.72;60.82;98405.31;6096262;23;20077;-84
2022/03/07 08:10:16;;;;;;;0.85;0.85;;;;;;;-0.82;60.84;98399.50;6122650;23;20022;-82
2022/03/07 08:12:44;;;;;;;0.70;0.70;;;;;;;-0.85;61.03;98394.56;6122222;23;20100;-83
2022/03/07 08:15:17;;;;;;;0.60;0.60;;;;;;;-0.79;61.18;98402.56;6121792;23;20383;-84
2022/03/07 08:17:46;;;;;;;0.70;0.70;;;;;;;-0.71;61.04;98404.28;6122863;23;20053;-84
2022/03/07 08:20:14;;;;;;;0.70;0.70;;;;;;;-0.70;61.11;98396.16;6096963;23;20032;-84
2022/03/07 08:22:43;;;;;;;0.80;0.80;;;;;;;-0.63;60.79;98395.41;6122937;23;20521;-84
2022/03/07 08:25:10;;;;;;;0.90;0.90;;;;;;;-0.58;60.51;98399.16;6096255;23;20029;-83
2022/03/07 08:27:38;;;;;;;0.70;0.70;;;;;;;-0.59;60.66;98389.56;6098499;23;20029;-86
2022/03/07 08:30:07;;;;;;;0.70;0.70;;;;;;;-0.52;60.70;98392.28;6097519;23;20041;-87
2022/03/07 08:32:35;;;;;;;0.80;0.80;;;;;;;-0.42;60.32;98394.63;6123313;23;20077;-85
2022/03/07 08:35:04;;;;;;;0.88;0.88;;;;;;;-0.44;60.17;98379.72;6096407;23;20026;-89
2022/03/07 08:37:45;;;;;;;0.70;0.70;;;;;;;-0.41;60.16;98385.66;6123504;23;20022;-86
2022/03/07 08:40:18;;;;;;;0.82;0.82;;;;;;;-0.39;60.25;98392.41;6124493;23;20025;-86
2022/03/07 08:42:45;;;;;;;0.90;0.90;;;;;;;-0.32;59.85;98395.13;6126647;23;20029;-88
2022/03/07 08:45:22;;;;;;;0.80;0.80;;;;;;;-0.27;59.83;98390.91;6056228;23;20538;-87
2022/03/07 08:48:13;;;;;;;0.65;0.65;;;;;;;-0.09;59.52;98393.09;6128791;23;20121;-89
2022/03/07 08:50:40;;;;;;;0.80;0.80;;;;;;;-0.04;59.25;98396.00;6038975;23;20041;-88
2022/03/07 08:53:07;;;;;;;0.70;0.70;;;;;;;-0.15;59.09;98404.47;6108527;23;20022;-87
2022/03/07 08:55:38;;;;;;;0.77;0.77;;;;;;;-0.20;59.75;98406.03;6087101;23;20032;-89
2022/03/07 08:58:13;;;;;;;0.90;0.90;;;;;;;-0.12;59.42;98414.69;6084683;23;20026;-91
2022/03/07 09:00:48;;;;;;;0.80;0.80;;;;;;;-0.16;59.10;98408.13;6132175;23;20104;-89
2022/03/07 09:03:16;;;;;;;0.60;0.60;;;;;;;-0.16;59.29;98407.31;6110504;23;20021;-89
2022/03/07 09:06:01;;;;;;;0.90;0.90;;;;;;;-0.26;59.13;98405.78;6070383;23;20409;-92
2022/03/07 09:08:28;;;;;;;0.70;0.70;;;;;;;-0.23;59.38;98401.94;6086680;23;20025;-88
2022/03/07 09:10:56;;;;;;;0.80;0.80;;;;;;;-0.18;59.29;98402.19;6111562;23;20033;-91
2022/03/07 09:13:25;;;;;;;0.70;0.70;;;;;;;-0.11;59.10;98405.72;6108734;23;20028;-88
2022/03/07 09:15:58;;;;;;;0.80;0.80;;;;;;;-0.03;59.03;98396.81;6110624;23;20124;-88
2022/03/07 09:18:26;;;;;;;0.90;0.90;;;;;;;-0.10;59.10;98396.78;6077778;23;20034;-87
2022/03/07 09:20:54;;;;;;;0.90;0.90;;;;;;;-0.03;58.90;98400.28;6080604;23;20028;-90
2022/03/07 09:23:37;;;;;;;0.90;0.90;;;;;;;0.01;58.68;98403.38;6105992;23;20021;-88
2022/03/07 09:26:09;;;;;;;0.80;0.80;;;;;;;0.02;58.84;98414.81;6131552;23;20084;-90
2022/03/07 09:28:38;;;;;;;0.97;0.97;;;;;;;0.04;58.66;98399.53;6138180;23;20053;-88
2022/03/07 09:31:08;;;;;;;0.88;0.88;;;;;;;0.08;58.51;98408.75;6113820;23;20021;-93
2022/03/07 09:33:38;;;;;;;0.80;0.80;;;;;;;0.16;57.93;98398.00;6097727;23;20008;-94
2022/03/07 09:36:08;;;;;;;0.90;0.90;;;;;;;0.19;57.61;98401.06;6144814;23;20006;-93
2022/03/07 09:38:38;;;;;;;0.90;0.90;;;;;;;0.28;57.25;98391.16;6098193;23;20009;-91
2022/03/07 09:41:11;;;;;;;0.80;0.80;;;;;;;0.21;57.26;98401.69;6093202;23;20029;-89
2022/03/07 09:43:39;;;;;;;0.80;0.80;;;;;;;0.41;57.04;98398.38;6092620;23;20010;-88
2022/03/07 09:46:36;;;;;;;1.00;1.00;;;;;;;0.68;56.92;98393.22;6143624;23;20022;-92
2022/03/07 09:49:15;;;;;;;1.00;1.00;;;;;;;1.17;55.69;98392.25;6062773;23;20167;-90
2022/03/07 09:51:43;;;;;;;1.00;1.00;;;;;;;1.33;54.61;98369.78;6090835;23;20078;-92
2022/03/07 09:54:15;;;;;;;0.90;0.90;;;;;;;1.19;54.49;98382.19;6071463;23;20022;-92
2022/03/07 09:56:43;;;;;;;0.98;0.98;;;;;;;1.13;54.85;98372.38;6093076;23;20069;-91
2022/03/07 09:59:11;;;;;;;0.80;0.80;;;;;;;1.13;54.94;98364.41;6156894;23;20029;-93
2022/03/07 10:01:39;;;;;;;1.33;1.23;;;;;;;2.92;51.77;98368.91;6147634;23;20053;-88
2022/03/07 10:04:12;;;;;;;1.10;1.10;;;;;;;4.75;47.55;98363.44;6118497;23;20029;-90
2022/03/07 10:06:48;;;;;;;;;;;;;;;5.69;45.40;98379.16;6150933;23;20021;-92
2022/03/07 10:09:27;;;;;;;1.30;1.20;;;;;;;6.15;42.83;98376.84;6151858;23;19920;-92
2022/03/07 10:12:28;;;;;;;1.40;1.30;;;;;;;6.15;42.55;98382.19;6144906;23;20086;31
2022/03/07 10:14:56;;;;;;;1.25;1.20;;;;;;;6.18;42.17;98345.06;6092524;23;20026;-90
2022/03/07 10:17:26;;;;;;;1.30;1.20;;;;;;;6.04;41.30;98389.97;6102917;23;20032;-92
2022/03/07 10:19:55;;;;;;;1.35;1.25;;;;;;;5.71;42.15;98362.88;6084095;23;20022;-89
2022/03/07 10:22:25;;;;;;;1.10;1.10;;;;;;;6.18;41.70;98361.13;6112483;23;20026;-94
2022/03/07 10:25:06;;;;;;;1.10;1.10;;;;;;;7.08;39.84;98367.13;6096888;23;20025;-91
2022/03/07 10:27:37;;;;;;;1.30;1.20;;;;;;;7.08;39.19;98373.28;6089058;23;20026;-89
2022/03/07 10:30:13;;;;;;;1.40;1.30;;;;;;;7.06;38.36;98366.53;6151559;23;20013;-92
2022/03/07 10:33:07;;;;;;;1.40;1.30;;;;;;;6.93;38.63;98362.25;6094810;23;20049;-87
2022/03/07 10:35:43;;;;;;;1.38;1.27;;;;;;;8.25;37.24;98379.16;6063208;23;20345;-86
2022/03/07 10:38:16;;;;;;;1.50;1.40;;;;;;;9.13;35.04;98362.41;6103711;23;20044;-86
2022/03/07 10:40:53;;;;;;;1.50;1.40;;;;;;;9.39;34.13;98391.25;6100111;23;20378;-88
2022/03/07 10:43:21;;;;;;;1.00;1.00;;;;;;;9.31;34.41;98354.00;6049074;23;20026;-84
2022/03/07 10:45:54;;;;;;;0.80;0.80;;;;;;;7.10;38.04;98373.88;6077154;23;20022;-89
2022/03/07 10:48:25;;;;;;;0.90;0.90;;;;;;;4.82;42.11;98370.59;6074099;23;20046;-87
2022/03/07 10:50:55;;;;;;;0.90;0.90;;;;;;;3.97;43.99;98374.66;6053736;23;20026;-87
2022/03/07 10:53:23;;;;;;;0.90;0.90;;;;;;;3.65;45.05;98373.88;6072622;23;20078;-86
2022/03/07 10:55:58;;;;;;;0.80;0.80;;;;;;;3.82;44.72;98383.00;6100196;23;20462;-85
2022/03/07 10:58:27;;;;;;;1.50;1.40;;;;;;;4.93;42.02;98372.53;6078485;23;20007;-87
2022/03/07 11:01:04;;;;;;;1.00;1.00;;;;;;;5.39;41.20;98385.34;6030121;23;20079;-85
2022/03/07 11:03:33;;;;;;;0.90;0.90;;;;;;;4.21;42.87;98370.38;6071068;23;20098;-86
2022/03/07 11:06:02;;;;;;;0.90;0.90;;;;;;;3.78;44.18;98372.97;6048913;23;20101;-85
2022/03/07 11:08:29;;;;;;;0.90;0.90;;;;;;;3.53;44.17;98378.25;6068854;23;20434;-84
2022/03/07 11:10:59;;;;;;;1.10;1.10;;;;;;;4.33;42.80;98363.28;6073201;23;20026;-87
2022/03/07 11:13:34;;;;;;;0.80;0.80;;;;;;;4.34;42.73;98383.59;6049568;23;20132;-89
2022/03/07 11:16:25;;;;;;;0.90;0.90;;;;;;;3.14;44.54;98372.06;6055601;23;20026;-89
2022/03/07 11:18:55;;;;;;;1.50;1.40;;;;;;;5.11;41.86;98361.00;6087192;23;20026;-88
2022/03/07 11:21:29;;;;;;;1.00;1.00;;;;;;;6.38;38.84;98362.63;6082206;23;20094;-89
2022/03/07 11:23:57;;;;;;;1.10;1.10;;;;;;;5.92;39.34;98364.19;6052237;23;20114;-86
2022/03/07 11:26:26;;;;;;;1.00;1.00;;;;;;;6.25;39.63;98369.03;6050933;23;20022;-84
2022/03/07 11:28:57;;;;;;;0.80;0.80;;;;;;;5.76;39.71;98373.72;6100053;23;20106;-84
2022/03/07 11:31:32;;;;;;;0.70;0.70;;;;;;;4.82;40.49;98370.59;6080491;23;20040;-86
2022/03/07 11:34:09;;;;;;;0.90;0.90;;;;;;;3.87;42.67;98382.34;6079264;23;20025;-87
2022/03/07 11:36:42;;;;;;;0.80;0.80;;;;;;;3.20;44.27;98381.91;6052058;23;20018;-84
2022/03/07 11:39:09;;;;;;;0.77;0.77;;;;;;;2.35;46.23;98388.06;6100140;23;20030;-86
2022/03/07 11:41:38;;;;;;;0.82;0.82;;;;;;;2.05;47.38;98379.72;6077727;23;20353;-88
2022/03/07 11:44:24;;;;;;;0.80;0.80;;;;;;;2.19;47.60;98398.34;6059022;23;20074;-88
2022/03/07 11:46:55;;;;;;;0.80;0.80;;;;;;;1.90;48.57;98381.72;6077854;23;20026;-86
2022/03/07 11:49:31;;;;;;;0.80;0.80;;;;;;;1.58;49.38;98397.47;6083914;23;20022;-87
2022/03/07 11:52:14;;;;;;;0.70;0.70;;;;;;;1.56;49.59;98396.84;6035902;23;20030;-87